Time;durP1;ratioP1;P1;durP2;ratioP2;P2;SDS_P1;SDS_P2;PMS_P1;PMS_P2;Temp;Humidity;BMP_temperature;BMP_pressure;BME280_temperature;BME280_humidity;BME280_pressure;Samples;Min_cycle;Max_cycle;Signal;HPM_P1;HPM_P2
2022/01/31 00:02:23;;;;;;;21.17;6.20;;;;;;;;;;5074520;28;20458;-78
2022/01/31 00:04:49;;;;;;;21.23;5.40;;;;;;;;;;5058561;28;20427;-78
2022/01/31 00:07:15;;;;;;;20.90;6.13;;;;;;;;;;5073737;28;20419;-78
2022/01/31 00:09:43;;;;;;;20.23;6.03;;;;;;;;;;5075385;28;20411;-78
2022/01/31 00:12:16;;;;;;;25.65;6.72;;;;;;;;;;5057262;28;20427;-78
2022/01/31 00:14:44;;;;;;;23.27;6.32;;;;;;;;;;5072853;28;21021;-78
2022/01/31 00:17:11;;;;;;;20.63;6.20;;;;;;;;;;5058599;28;20435;-78
2022/01/31 00:19:39;;;;;;;18.25;5.80;;;;;;;;;;5057943;28;20499;-78
2022/01/31 00:22:07;;;;;;;24.92;5.90;;;;;;;;;;5064008;28;20422;-78
2022/01/31 00:24:34;;;;;;;19.95;5.80;;;;;;;;;;5074496;28;21088;-78
2022/01/31 00:27:00;;;;;;;20.13;6.60;;;;;;;;;;5054996;28;20419;-78
2022/01/31 00:29:26;;;;;;;25.50;7.10;;;;;;;;;;5075677;28;20424;-78
2022/01/31 00:31:52;;;;;;;22.85;6.70;;;;;;;;;;5074066;28;20423;-77
2022/01/31 00:34:18;;;;;;;20.48;6.47;;;;;;;;;;5074469;28;20434;-77
2022/01/31 00:36:45;;;;;;;20.45;7.10;;;;;;;;;;5074688;28;20462;-77
2022/01/31 00:39:11;;;;;;;24.02;7.38;;;;;;;;;;5057212;28;20431;-78
2022/01/31 00:41:37;;;;;;;20.92;7.47;;;;;;;;;;5057072;28;20412;-77
2022/01/31 00:46:50;;;;;;;24.25;8.60;;;;;;;;;;5058770;28;20423;-77
2022/01/31 00:49:27;;;;;;;23.70;8.27;;;;;;;;;;5054297;28;20898;-76
2022/01/31 00:51:53;;;;;;;28.05;9.40;;;;;;;;;;5070552;28;20428;-77
2022/01/31 00:54:19;;;;;;;22.75;8.45;;;;;;;;;;5081737;28;20427;-77
2022/01/31 00:56:45;;;;;;;24.98;9.48;;;;;;;;;;5077551;28;20454;-77
2022/01/31 00:59:11;;;;;;;30.70;9.25;;;;;;;;;;5076409;28;20878;-78
2022/01/31 01:01:37;;;;;;;26.50;9.52;;;;;;;;;;5077894;28;20423;-78
2022/01/31 01:04:04;;;;;;;27.20;9.55;;;;;;;;;;5077061;28;20434;-77
2022/01/31 01:06:30;;;;;;;26.85;9.90;;;;;;;;;;5079094;28;20415;-78
2022/01/31 01:08:56;;;;;;;26.08;9.68;;;;;;;;;;5078687;28;20443;-77
2022/01/31 01:11:22;;;;;;;29.30;10.38;;;;;;;;;;5078427;28;20423;-77
2022/01/31 01:13:48;;;;;;;26.77;10.25;;;;;;;;;;5071412;28;20412;-78
2022/01/31 01:16:14;;;;;;;25.50;11.00;;;;;;;;;;5078723;28;20423;-76
2022/01/31 01:18:40;;;;;;;31.05;11.60;;;;;;;;;;5059338;28;20500;-77
2022/01/31 01:21:06;;;;;;;29.65;13.32;;;;;;;;;;5078441;28;20439;-76
2022/01/31 01:23:32;;;;;;;32.23;13.10;;;;;;;;;;5077664;28;20470;-76
2022/01/31 01:25:58;;;;;;;32.88;14.50;;;;;;;;;;5060994;28;20483;-76
2022/01/31 01:28:25;;;;;;;34.20;15.48;;;;;;;;;;5059507;28;20451;-75
2022/01/31 01:30:54;;;;;;;29.27;15.95;;;;;;;;;;5075408;28;20424;-76
2022/01/31 01:33:22;;;;;;;38.13;17.70;;;;;;;;;;5078909;28;20408;-75
2022/01/31 01:35:50;;;;;;;37.33;17.85;;;;;;;;;;5076616;28;20431;-76
2022/01/31 01:38:17;;;;;;;38.55;17.88;;;;;;;;;;5075993;28;21066;-75
2022/01/31 01:40:44;;;;;;;36.97;18.60;;;;;;;;;;5077729;28;20506;-75
2022/01/31 01:43:11;;;;;;;35.85;18.27;;;;;;;;;;5077579;28;20435;-75
2022/01/31 01:45:38;;;;;;;39.67;19.58;;;;;;;;;;5077008;28;20454;-76
2022/01/31 01:48:06;;;;;;;38.40;21.20;;;;;;;;;;5077365;28;20411;-74
2022/01/31 01:50:33;;;;;;;35.13;20.23;;;;;;;;;;5077168;28;21014;-74
2022/01/31 01:53:00;;;;;;;34.08;19.67;;;;;;;;;;5076518;28;20423;-75
2022/01/31 01:55:26;;;;;;;34.05;19.23;;;;;;;;;;5079083;28;20453;-74
2022/01/31 01:57:52;;;;;;;27.17;17.57;;;;;;;;;;5060307;28;20535;-75
2022/01/31 02:00:25;;;;;;;28.70;18.05;;;;;;;;;;5060454;28;20420;-75
2022/01/31 02:02:51;;;;;;;31.63;17.75;;;;;;;;;;5072733;28;20422;-75
2022/01/31 02:05:18;;;;;;;28.85;17.80;;;;;;;;;;5057869;28;20458;-74
2022/01/31 02:07:44;;;;;;;30.27;18.25;;;;;;;;;;5075888;28;20935;-75
2022/01/31 02:10:17;;;;;;;29.98;17.15;;;;;;;;;;5073042;28;20436;-74
2022/01/31 02:12:47;;;;;;;31.80;19.33;;;;;;;;;;5076302;28;20436;-74
2022/01/31 02:15:15;;;;;;;32.50;18.92;;;;;;;;;;5076626;28;20416;-75
2022/01/31 02:17:41;;;;;;;30.52;18.40;;;;;;;;;;5069202;28;20430;-74
2022/01/31 02:20:09;;;;;;;36.35;19.75;;;;;;;;;;5076522;28;20416;-74
2022/01/31 02:22:35;;;;;;;37.63;21.55;;;;;;;;;;5076434;28;20905;-75
2022/01/31 02:25:01;;;;;;;35.92;20.83;;;;;;;;;;5075952;28;20764;-74
2022/01/31 02:27:28;;;;;;;35.00;21.17;;;;;;;;;;5075275;28;20433;-75
2022/01/31 02:29:54;;;;;;;35.80;20.55;;;;;;;;;;5076689;28;20423;-75
2022/01/31 02:32:22;;;;;;;41.65;22.13;;;;;;;;;;5074495;28;20435;-75
2022/01/31 02:34:49;;;;;;;35.20;19.98;;;;;;;;;;5059517;28;20958;-75
2022/01/31 02:37:15;;;;;;;32.42;18.98;;;;;;;;;;5058445;28;20869;-74
2022/01/31 02:39:41;;;;;;;26.95;18.48;;;;;;;;;;5076250;28;20434;-75
2022/01/31 02:42:07;;;;;;;30.00;18.48;;;;;;;;;;5057895;28;20455;-74
2022/01/31 02:44:33;;;;;;;31.50;19.00;;;;;;;;;;5056951;28;20479;-74
2022/01/31 02:47:00;;;;;;;27.60;17.50;;;;;;;;;;5076544;28;20427;-74
2022/01/31 02:49:33;;;;;;;29.30;18.20;;;;;;;;;;5077246;28;20423;-74
2022/01/31 02:52:02;;;;;;;32.17;18.45;;;;;;;;;;5077964;28;20416;-74
2022/01/31 02:54:32;;;;;;;32.20;18.38;;;;;;;;;;5073950;28;20457;-74
2022/01/31 02:56:58;;;;;;;32.63;18.10;;;;;;;;;;5073827;28;20435;-75
2022/01/31 02:59:24;;;;;;;37.72;18.52;;;;;;;;;;5060233;28;20416;-75
2022/01/31 03:01:50;;;;;;;28.53;17.30;;;;;;;;;;5076918;28;20411;-75
2022/01/31 03:04:16;;;;;;;28.20;15.75;;;;;;;;;;5074686;28;20424;-74
2022/01/31 03:06:49;;;;;;;28.08;15.40;;;;;;;;;;5074995;28;20481;-75
2022/01/31 03:09:15;;;;;;;24.60;14.90;;;;;;;;;;5076611;28;20420;-75
2022/01/31 03:11:41;;;;;;;26.27;14.63;;;;;;;;;;5054573;28;20510;-75
2022/01/31 03:14:07;;;;;;;25.88;13.75;;;;;;;;;;5074310;28;20453;-75
2022/01/31 03:16:34;;;;;;;25.67;13.82;;;;;;;;;;5075422;28;20430;-76
2022/01/31 03:19:01;;;;;;;24.80;11.65;;;;;;;;;;5074705;28;20532;-76
2022/01/31 03:21:27;;;;;;;28.38;11.48;;;;;;;;;;5074068;28;20424;-75
2022/01/31 03:23:53;;;;;;;28.60;10.52;;;;;;;;;;5055840;28;20564;-76
2022/01/31 03:26:19;;;;;;;26.63;9.07;;;;;;;;;;5042080;28;20443;-75
2022/01/31 03:28:45;;;;;;;26.60;8.40;;;;;;;;;;5075030;28;20415;-75
2022/01/31 03:31:11;;;;;;;24.88;7.45;;;;;;;;;;5058895;28;20757;-75
2022/01/31 03:33:37;;;;;;;30.15;7.15;;;;;;;;;;5058623;28;20434;-76
2022/01/31 03:36:04;;;;;;;34.05;7.20;;;;;;;;;;5074180;28;20423;-75
2022/01/31 03:38:30;;;;;;;28.55;7.25;;;;;;;;;;5058940;28;20473;-76
2022/01/31 03:40:56;;;;;;;24.13;6.05;;;;;;;;;;5074228;28;20411;-76
2022/01/31 03:43:22;;;;;;;31.55;7.18;;;;;;;;;;5074050;28;20428;-76
2022/01/31 03:45:48;;;;;;;28.42;6.30;;;;;;;;;;5057250;28;21256;-75
2022/01/31 03:48:14;;;;;;;29.13;6.50;;;;;;;;;;5076603;28;20427;-77
2022/01/31 03:50:40;;;;;;;33.63;7.18;;;;;;;;;;5057961;28;20446;-77
2022/01/31 03:53:06;;;;;;;36.15;7.00;;;;;;;;;;5056449;28;20427;-75
2022/01/31 03:55:32;;;;;;;25.02;5.78;;;;;;;;;;5075434;28;20507;-76
2022/01/31 03:57:58;;;;;;;26.33;5.65;;;;;;;;;;5072347;28;20449;-76
2022/01/31 04:00:25;;;;;;;23.55;5.68;;;;;;;;;;5054432;28;21223;-76
2022/01/31 04:02:51;;;;;;;25.15;5.13;;;;;;;;;;5058397;28;20499;-76
2022/01/31 04:05:17;;;;;;;19.10;5.07;;;;;;;;;;5057917;28;20423;-76
2022/01/31 04:07:43;;;;;;;18.52;3.60;;;;;;;;;;5076156;28;20426;-77
2022/01/31 04:10:10;;;;;;;13.60;3.50;;;;;;;;;;5056202;28;20428;-76
2022/01/31 04:12:36;;;;;;;14.38;3.65;;;;;;;;;;5077348;28;20458;-75
2022/01/31 04:15:02;;;;;;;14.50;4.00;;;;;;;;;;5073864;28;20419;-76
2022/01/31 04:17:31;;;;;;;13.97;3.20;;;;;;;;;;5057853;28;20944;-75
2022/01/31 04:19:57;;;;;;;15.18;3.80;;;;;;;;;;5057594;28;20427;-75
2022/01/31 04:22:26;;;;;;;17.48;4.15;;;;;;;;;;5055721;28;20707;-75
2022/01/31 04:24:58;;;;;;;14.70;4.07;;;;;;;;;;5057139;28;20954;-76
2022/01/31 04:27:28;;;;;;;16.60;3.78;;;;;;;;;;5071729;28;20427;-76
2022/01/31 04:29:54;;;;;;;19.38;4.57;;;;;;;;;;5058451;28;20428;-76
2022/01/31 04:32:20;;;;;;;24.17;4.80;;;;;;;;;;5056684;28;20447;-76
2022/01/31 04:34:46;;;;;;;19.05;4.03;;;;;;;;;;5075226;28;20423;-76
2022/01/31 04:37:13;;;;;;;25.50;4.57;;;;;;;;;;5057886;28;20435;-75
2022/01/31 04:39:39;;;;;;;21.45;4.47;;;;;;;;;;5073969;28;20522;-77
2022/01/31 04:42:06;;;;;;;22.98;4.60;;;;;;;;;;5073333;28;20426;-77
2022/01/31 04:44:32;;;;;;;27.75;4.60;;;;;;;;;;5073349;28;20424;-77
2022/01/31 04:46:58;;;;;;;26.55;4.97;;;;;;;;;;5074684;28;20427;-76
2022/01/31 04:49:24;;;;;;;26.45;5.05;;;;;;;;;;5073888;28;20491;-76
2022/01/31 04:51:51;;;;;;;23.58;4.90;;;;;;;;;;5073452;28;20434;-77
2022/01/31 04:54:17;;;;;;;23.80;4.60;;;;;;;;;;5045603;28;20434;-76
2022/01/31 04:56:44;;;;;;;20.88;5.28;;;;;;;;;;5072619;28;20427;-76
2022/01/31 04:59:11;;;;;;;22.88;3.92;;;;;;;;;;5073463;28;20411;-76
2022/01/31 05:01:43;;;;;;;16.17;3.78;;;;;;;;;;5073448;28;20454;-76
2022/01/31 05:04:09;;;;;;;20.88;4.20;;;;;;;;;;5074355;28;20423;-76
2022/01/31 05:06:38;;;;;;;23.00;4.00;;;;;;;;;;5038669;28;20429;-76
2022/01/31 05:09:04;;;;;;;12.13;2.65;;;5.20;99.90;;;;;;5074112;28;20423;-76
2022/01/31 05:11:31;;;;;;;9.50;2.03;;;;;;;;;;5068846;28;20424;-76
2022/01/31 05:13:57;;;;;;;8.15;1.67;;;;;;;;;;5027414;28;20473;-76
2022/01/31 05:16:23;;;;;;;7.45;1.60;;;;;;;;;;5074696;28;20427;-76
2022/01/31 05:18:49;;;;;;;9.15;1.80;;;;;;;;;;5070446;28;20630;-76
2022/01/31 05:21:15;;;;;;;11.85;1.77;;;;;;;;;;5073972;28;20418;-76
2022/01/31 05:23:41;;;;;;;8.68;2.10;;;;;;;;;;5072951;28;20436;-76
2022/01/31 05:26:07;;;;;;;9.35;1.88;;;;;;;;;;5040874;28;20471;-77
2022/01/31 05:28:34;;;;;;;12.65;2.40;;;;;;;;;;5073636;28;20416;-76
2022/01/31 05:31:00;;;;;;;12.82;2.50;;;;;;;;;;5053390;28;20423;-76
2022/01/31 05:33:26;;;;;;;15.05;2.53;;;;;;;;;;5075363;28;20428;-76
2022/01/31 05:35:53;;;;;;;16.58;2.90;;;;;;;;;;5071321;28;20645;-76
2022/01/31 05:38:19;;;;;;;19.70;2.97;;;;;;;;;;5073350;28;20471;-76
2022/01/31 05:40:45;;;;;;;18.25;2.63;;;;;;;;;;5076826;28;20510;-75
2022/01/31 05:43:11;;;;;;;20.70;3.10;;;;;;;;;;5060161;28;20431;-75
2022/01/31 05:45:37;;;;;;;17.08;2.85;;;;;;;;;;5075503;28;20423;-75
2022/01/31 05:48:03;;;;;;;20.40;3.78;;;;;;;;;;5076754;28;20436;-76
2022/01/31 05:50:29;;;;;;;20.20;2.97;;;;;;;;;;5061435;28;20412;-75
2022/01/31 05:52:55;;;;;;;19.65;2.75;;;;;;;;;;5075235;28;20428;-77
2022/01/31 05:55:22;;;;;;;17.73;3.40;;;;;;;;;;5076126;28;20985;-76
2022/01/31 05:57:48;;;;;;;16.73;3.15;;;;;;;;;;5076563;28;20538;-76
2022/01/31 06:00:14;;;;;;;20.50;2.80;;;;;;;;;;5076578;28;20522;-75
2022/01/31 06:02:41;;;;;;;20.83;3.20;;;;;;;;;;5076874;28;20939;-75
2022/01/31 06:05:07;;;;;;;19.55;3.15;;;;;;;;;;5077466;28;20562;-76
2022/01/31 06:07:33;;;;;;;19.33;3.07;;;;;;;;;;5059934;28;20423;-76
2022/01/31 06:10:00;;;;;;;27.92;4.30;;;;;;;;;;5076310;28;20934;-75
2022/01/31 06:12:26;;;;;;;27.35;3.70;;;;;;;;;;5056954;28;20418;-75
2022/01/31 06:14:52;;;;;;;23.63;3.75;;;;;;;;;;5074104;28;20427;-75
2022/01/31 06:17:18;;;;;;;24.90;3.80;;;;;;;;;;5055976;28;20428;-75
2022/01/31 06:19:44;;;;;;;26.10;3.90;;;;;;;;;;5053738;28;20429;-76
2022/01/31 06:22:10;;;;;;;24.38;3.47;;;;;;;;;;5055863;28;20432;-76
2022/01/31 06:24:36;;;;;;;28.40;4.03;;;;;;;;;;5056803;28;20493;-76
2022/01/31 06:27:04;;;;;;;24.58;3.65;;;;;;;;;;5039766;28;20424;-76
2022/01/31 06:29:30;;;;;;;27.87;4.20;;;;;;;;;;5043078;28;20493;-76
2022/01/31 06:31:56;;;;;;;22.15;3.50;;;;;;;;;;5055832;28;20466;-77
2022/01/31 06:34:22;;;;;;;26.90;3.85;;;;;;;;;;5048129;28;20421;-76
2022/01/31 06:36:48;;;;;;;22.33;3.78;;;;;;;;;;5023794;28;20438;-77
2022/01/31 06:39:14;;;;;;;17.42;3.47;;;;;;;;;;5072049;28;20421;-77
2022/01/31 06:41:40;;;;;;;15.13;2.97;;;;;;;;;;5055863;28;20421;-76
2022/01/31 06:44:06;;;;;;;15.10;2.58;;;;;;;;;;5055506;28;20429;-77
2022/01/31 06:46:33;;;;;;;17.40;3.60;;;;;;;;;;5056439;28;20532;-76
2022/01/31 06:48:59;;;;;;;19.75;3.58;;;;;;;;;;5087405;28;20414;-76
2022/01/31 06:51:25;;;;;;;18.65;3.17;;;;;;;;;;5042268;28;20524;-76
2022/01/31 06:53:51;;;;;;;19.58;2.95;;;;;;;;;;5056557;28;20431;-76
2022/01/31 06:56:24;;;;;;;12.65;2.90;;;;;;;;;;5053562;28;20509;-76
2022/01/31 06:58:50;;;;;;;17.30;3.28;;;;;;;;;;5068258;28;20443;-76
2022/01/31 07:01:17;;;;;;;14.75;2.95;;;;;;;;;;5054053;28;20424;-76
2022/01/31 07:03:43;;;;;;;16.50;2.93;;;;;;;;;;5051905;28;20450;-78
2022/01/31 07:06:11;;;;;;;19.00;3.30;;;;;;;;;;5053310;28;20432;-77
2022/01/31 07:08:37;;;;;;;12.73;2.65;;;;;;;;;;5038958;28;20438;-77
2022/01/31 07:11:03;;;;;;;16.93;2.90;;;;;;;;;;5070954;28;20413;-78
2022/01/31 07:15:58;;;;;;;16.95;3.25;;;;;;;;;;5061131;28;20491;-80
2022/01/31 07:18:24;;;;;;;18.87;3.50;;;;;;;;;;5059251;28;20932;-79
2022/01/31 07:20:52;;;;;;;19.90;2.75;;;;;;;;;;5061850;28;20512;-77
2022/01/31 07:23:37;;;;;;;18.98;3.55;;;;;;;;;;5059003;28;20430;-78
2022/01/31 07:26:03;;;;;;;21.48;3.40;;;;;;;;;;5082931;28;20421;-77
2022/01/31 07:28:29;;;;;;;23.00;3.85;;;;;;;;;;5052949;28;20441;-83
2022/01/31 07:30:57;;;;;;;23.02;4.03;;;;;;;;;;5039042;28;20421;-83
2022/01/31 07:33:24;;;;;;;24.15;3.70;;;;;;;;;;5043182;28;20423;-82
2022/01/31 07:35:51;;;;;;;25.23;3.53;;;;;;;;;;5055902;28;20429;-82
